KHYR/HYR METAR and TAF weather

Enter ICAO airport designator
Station Type Date Time Source
KHYR METAR 2020/09/22 04:53 UTC NOAA

KHYR 220453Z AUTO 20004KT 10SM CLR 15/13 A3011 RMK AO2 SLP195 T01500128


Station Type Date Time Source
KHYR Decoded METAR 2020/09/22 04:53 UTC NOAA

HAYWARD MUNICIPAL AIRPORT, WI, United States (KHYR) 46-01N 91-27W 370M
Sep 22, 2020 - 12:53 AM EDT / 2020.09.22 0453 UTC
Wind: from the SSW (200 degrees) at 5 MPH (4 KT):0
Visibility: 10 mile(s):0
Sky conditions: clear
Temperature: 59.0 F (15.0 C)
Dew Point: 55.0 F (12.8 C)
Relative Humidity: 86%
Pressure (altimeter): 30.11 in. Hg (1019 hPa)
ob: KHYR 220453Z AUTO 20004KT 10SM CLR 15/13 A3011 RMK AO2 SLP195 T01500128
cycle: 5

Station Type Date Time Source
KHYR TAF 2020/09/22 03:30 UTC NOAA

TAF
AMD KHYR 220327Z 2203/2224 20006KT P6SM SKC
FM221100 VRB02KT 1 1/2SM BR SCT001
FM221400 VRB02KT P6SM FEW070

Example: see airport list